Time;durP1;ratioP1;P1;durP2;ratioP2;P2;SDS_P1;SDS_P2;PMS_P1;PMS_P2;Temp;Humidity;BMP_temperature;BMP_pressure;BME280_temperature;BME280_humidity;BME280_pressure;Samples;Min_cycle;Max_cycle;Signal;HPM_P1;HPM_P2
2023/10/16 00:00:29;;;;;;;3.28;1.70;;;7.60;98.90;;;;;;4989516;28;20392;-15
2023/10/16 00:03:01;;;;;;;5.40;1.77;;;7.60;98.90;;;;;;5007893;28;20042;-16
2023/10/16 00:05:32;;;;;;;3.03;1.73;;;7.60;99.30;;;;;;4984385;28;20867;-16
2023/10/16 00:08:05;;;;;;;2.47;1.50;;;7.60;99.00;;;;;;4996073;28;20025;-17
2023/10/16 00:10:32;;;;;;;2.92;1.70;;;7.50;99.00;;;;;;4999170;28;20107;-18
2023/10/16 00:13:04;;;;;;;2.63;1.73;;;7.50;99.00;;;;;;5008178;28;20029;-17
2023/10/16 00:15:40;;;;;;;3.53;1.80;;;7.50;99.00;;;;;;5002178;28;21547;-17
2023/10/16 00:18:16;;;;;;;3.35;1.80;;;7.50;99.00;;;;;;4990176;28;20045;-17
2023/10/16 00:20:42;;;;;;;4.57;1.83;;;7.50;99.00;;;;;;5011739;28;20045;-17
2023/10/16 00:23:12;;;;;;;3.70;1.95;;;7.50;99.10;;;;;;4986548;28;20053;-17
2023/10/16 00:25:43;;;;;;;4.18;1.65;;;7.40;99.00;;;;;;5008936;28;20080;-17
2023/10/16 00:28:10;;;;;;;2.38;1.60;;;7.40;99.00;;;;;;4991021;28;20030;-17
2023/10/16 00:30:40;;;;;;;2.53;1.73;;;7.50;99.10;;;;;;4993391;28;20022;-18
2023/10/16 00:33:10;;;;;;;3.20;1.70;;;7.40;99.00;;;;;;5002470;28;20034;-17
2023/10/16 00:35:37;;;;;;;2.90;1.52;;;7.40;99.00;;;;;;4978418;28;20415;-18
2023/10/16 00:38:04;;;;;;;2.95;1.60;;;7.40;99.10;;;;;;5013112;28;20745;-16
2023/10/16 00:40:33;;;;;;;2.95;1.80;;;6.40;99.90;;;;;;5007159;28;20995;-16
2023/10/16 00:43:12;;;;;;;2.85;1.60;;;7.30;99.10;;;;;;4993438;28;20029;-14
2023/10/16 00:46:10;;;;;;;2.53;1.37;;;7.30;99.10;;;;;;4994645;28;20034;-14
2023/10/16 00:48:38;;;;;;;2.58;1.50;;;7.30;99.10;;;;;;5001800;28;20038;-13
2023/10/16 00:51:09;;;;;;;2.78;1.40;;;7.30;99.20;;;;;;4975693;28;20551;-14
2023/10/16 00:53:39;;;;;;;3.45;1.40;;;7.20;99.10;;;;;;4999170;28;20064;-14
2023/10/16 00:56:13;;;;;;;2.05;1.40;;;7.20;99.10;;;;;;5004966;28;20024;-14
2023/10/16 00:58:40;;;;;;;3.10;1.67;;;7.20;99.10;;;;;;5000866;28;20483;-14
2023/10/16 01:01:12;;;;;;;2.30;1.50;;;7.20;99.10;;;;;;4992708;28;20439;-14
2023/10/16 01:03:40;;;;;;;2.10;1.48;;;7.20;99.20;;;;;;5007851;28;20038;-14
2023/10/16 01:06:17;;;;;;;2.42;1.40;;;7.20;99.20;;;;;;4984851;28;20121;-14
2023/10/16 01:08:49;;;;;;;3.13;1.77;;;7.20;99.20;;;;;;5000018;28;20338;-14
2023/10/16 01:11:19;;;;;;;2.80;1.47;;;7.20;99.20;;;;;;4995745;28;20151;-14
2023/10/16 01:13:47;;;;;;;2.42;1.70;;;7.20;99.30;;;;;;4999343;28;20038;-14
2023/10/16 01:16:17;;;;;;;2.75;1.58;;;7.10;99.20;;;;;;5012893;28;20057;-14
2023/10/16 01:18:44;;;;;;;3.33;1.65;;;7.10;99.20;;;;;;4998723;28;20031;-14
2023/10/16 01:21:13;;;;;;;3.03;1.83;;;7.10;99.20;;;;;;4984707;28;20037;-14
2023/10/16 01:23:40;;;;;;;2.33;1.50;;;7.10;99.60;;;;;;4999080;28;20026;-14
2023/10/16 01:26:08;;;;;;;2.92;1.67;;;7.10;99.30;;;;;;5004990;28;20096;-14
2023/10/16 01:28:33;;;;;;;2.55;1.70;;;7.00;99.20;;;;;;5003046;28;20033;-14
2023/10/16 01:31:00;;;;;;;5.43;1.70;;;7.00;99.20;;;;;;4998123;28;21493;-14
2023/10/16 01:33:27;;;;;;;2.50;1.47;;;7.00;99.20;;;;;;4998685;28;20010;-14
2023/10/16 01:35:53;;;;;;;2.22;1.48;;;7.00;99.20;;;;;;4983447;28;20594;-14
2023/10/16 01:38:19;;;;;;;2.60;1.60;;;7.00;99.20;;;;;;5010968;28;20034;-14
2023/10/16 01:43:28;;;;;;;3.10;1.60;;;6.90;99.10;;;;;;4999245;28;20477;-14
2023/10/16 01:45:58;;;;;;;2.55;1.63;;;7.00;99.10;;;;;;5009440;28;20021;-14
2023/10/16 01:48:28;;;;;;;2.25;1.40;;;6.90;99.10;;;;;;4985172;28;20041;-15
2023/10/16 01:50:54;;;;;;;2.33;1.48;;;6.90;99.10;;;;;;4997033;28;20041;-15
2023/10/16 01:53:20;;;;;;;2.33;1.52;;;6.90;99.10;;;;;;5022381;28;20029;-15
2023/10/16 01:55:51;;;;;;;2.20;1.40;;;6.90;99.10;;;;;;4997336;28;20032;-15
2023/10/16 01:58:17;;;;;;;2.72;1.40;;;6.80;99.10;;;;;;5010739;28;20030;-15
2023/10/16 02:00:45;;;;;;;2.95;1.60;;;6.80;99.10;;;;;;4996568;28;20026;-15
2023/10/16 02:03:11;;;;;;;3.10;1.80;;;6.80;99.10;;;;;;4998024;28;20061;-15
2023/10/16 02:05:41;;;;;;;3.60;1.55;;;6.80;99.10;;;;;;5019974;28;20049;-15
2023/10/16 02:08:07;;;;;;;3.17;1.73;;;6.80;99.10;;;;;;4976780;28;20238;-15
2023/10/16 02:10:32;;;;;;;3.17;1.48;;;6.80;99.10;;;;;;5008830;28;20041;-16
2023/10/16 02:12:58;;;;;;;3.72;1.70;;;6.80;99.10;;;;;;4994533;28;20029;-15
2023/10/16 02:15:24;;;;;;;2.33;1.40;;;6.70;99.10;;;;;;5000424;28;20136;-15
2023/10/16 02:17:50;;;;;;;3.50;1.77;;;6.70;99.10;;;;;;5009904;28;20087;-15
2023/10/16 02:20:17;;;;;;;2.60;1.50;;;6.70;99.10;;;;;;4993492;28;20030;-15
2023/10/16 02:22:46;;;;;;;2.75;1.45;;;6.60;99.10;;;;;;4995315;28;20036;-15
2023/10/16 02:25:12;;;;;;;3.13;1.67;;;6.60;99.10;;;;;;4999988;28;20471;-16
2023/10/16 02:27:41;;;;;;;2.88;1.58;;;6.60;99.20;;;;;;4999195;28;20030;-15
2023/10/16 02:32:53;;;;;;;2.70;1.38;;;6.60;99.20;;;;;;4996704;28;20029;-15
2023/10/16 02:35:22;;;;;;;2.90;1.50;;;6.60;99.20;;;;;;4994233;28;20037;-16
2023/10/16 02:37:57;;;;;;;2.50;1.45;;;6.50;99.20;;;;;;4986794;28;20018;-15
2023/10/16 02:40:26;;;;;;;2.28;1.40;;;6.50;99.20;;;;;;5005647;28;20029;-15
2023/10/16 02:42:56;;;;;;;2.47;1.30;;;6.50;99.30;;;;;;4996255;28;20100;-15
2023/10/16 02:45:25;;;;;;;2.70;1.55;;;6.50;99.30;;;;;;5014379;28;20021;-15
2023/10/16 02:47:52;;;;;;;2.72;1.65;;;6.50;99.30;;;;;;4997700;28;20064;-15
2023/10/16 02:50:19;;;;;;;3.08;1.50;;;6.50;99.40;;;;;;4993709;28;20065;-15
2023/10/16 02:52:48;;;;;;;2.53;1.55;;;9.50;99.90;;;;;;5006216;28;20526;-15
2023/10/16 02:55:15;;;;;;;2.63;1.47;;;6.50;99.40;;;;;;4982308;28;20059;-16
2023/10/16 02:57:42;;;;;;;2.30;1.33;;;6.50;99.50;;;;;;5000674;28;20169;-15
2023/10/16 03:00:17;;;;;;;2.40;1.50;;;6.50;99.50;;;;;;4999884;28;20565;-14
2023/10/16 03:02:46;;;;;;;2.47;1.33;;;6.50;99.50;;;;;;4998536;28;20041;-14
2023/10/16 03:05:21;;;;;;;2.35;1.40;;;6.50;99.50;;;;;;4989458;28;20211;-14
2023/10/16 03:07:49;;;;;;;2.17;1.40;;;6.50;99.50;;;;;;4990944;28;20071;-14
2023/10/16 03:10:16;;;;;;;2.20;1.40;;;6.50;99.50;;;;;;4980124;28;20029;-14
2023/10/16 03:12:43;;;;;;;2.75;1.60;;;6.40;99.50;;;;;;5006884;28;20037;-14
2023/10/16 03:15:15;;;;;;;2.00;1.42;;;6.40;99.50;;;;;;4996408;28;20091;-14
2023/10/16 03:17:41;;;;;;;3.42;1.63;;;6.40;99.50;;;;;;5000184;28;20378;-14
2023/10/16 03:20:35;;;;;;;3.53;1.60;;;6.40;99.50;;;;;;4995746;28;20800;-14
2023/10/16 03:23:06;;;;;;;3.08;1.50;;;6.40;99.50;;;;;;4996506;28;20373;-14
2023/10/16 03:28:07;;;;;;;2.50;1.42;;;6.40;99.40;;;;;;5009560;28;20029;-14
2023/10/16 03:30:33;;;;;;;3.53;1.63;;;6.40;99.40;;;;;;4995456;28;20566;-15
2023/10/16 03:32:59;;;;;;;2.33;1.40;;;6.40;99.70;;;;;;4994765;28;20030;-14
2023/10/16 03:35:26;;;;;;;2.55;1.60;;;5.20;99.90;;;;;;5009380;28;20108;-14
2023/10/16 03:37:55;;;;;;;3.05;1.60;;;6.30;99.30;;;;;;4989533;28;20038;-14
2023/10/16 03:40:24;;;;;;;2.70;1.50;;;6.30;99.30;;;;;;5009117;28;20033;-15
2023/10/16 03:42:51;;;;;;;2.58;1.45;;;6.30;99.30;;;;;;4975936;28;20280;-15
2023/10/16 03:45:20;;;;;;;2.63;1.48;;;6.30;99.30;;;;;;5020761;28;20355;-15
2023/10/16 03:47:51;;;;;;;2.03;1.33;;;6.30;99.40;;;;;;4986747;28;20217;-15
2023/10/16 03:50:34;;;;;;;2.85;1.50;;;6.30;99.30;;;;;;5006749;28;20025;-15
2023/10/16 03:53:01;;;;;;;2.33;1.47;;;6.20;99.40;;;;;;4992143;28;20608;-15
2023/10/16 03:55:27;;;;;;;2.33;1.40;;;6.20;99.40;;;;;;5004133;28;20025;-15
2023/10/16 03:57:55;;;;;;;2.20;1.38;;;6.20;99.40;;;;;;4979168;28;20109;-16
2023/10/16 04:00:50;;;;;;;2.65;1.50;;;6.20;99.40;;;;;;5008680;28;20092;-15
2023/10/16 04:03:17;;;;;;;2.83;1.55;;;6.20;99.50;;;;;;5011417;28;20044;-15
2023/10/16 04:05:46;;;;;;;2.10;1.40;;;6.20;99.50;;;;;;4994342;28;20026;-15
2023/10/16 04:08:18;;;;;;;3.13;1.58;;;6.20;99.60;;;;;;5014051;28;20036;-15
2023/10/16 04:10:46;;;;;;;3.20;1.50;;;6.20;99.60;;;;;;4986739;28;20795;-15
2023/10/16 04:13:14;;;;;;;3.80;1.83;;;6.20;99.60;;;;;;4982041;28;20030;-15
2023/10/16 04:20:57;;;;;;;3.30;1.50;;;6.20;99.70;;;;;;4981798;28;20307;-16
2023/10/16 04:23:52;;;;;;;2.55;1.52;;;6.20;99.80;;;;;;5008304;28;20116;-15
2023/10/16 04:31:44;;;;;;;2.53;1.40;;;6.20;99.90;;;;;;4998650;28;20022;-15
2023/10/16 04:42:50;;;;;;;4.13;1.70;;;4.60;99.90;;;;;;5011157;28;20025;-15
2023/10/16 04:47:42;;;;;;;2.58;1.55;;;6.10;99.90;;;;;;5014790;28;20029;-15
2023/10/16 04:50:13;;;;;;;3.95;1.63;;;6.20;99.90;;;;;;5006345;28;20079;-14
2023/10/16 05:00:56;;;;;;;3.35;1.80;;;6.10;99.90;;;;;;4983114;28;20591;-14
2023/10/16 05:03:44;;;;;;;2.92;1.73;;;6.10;99.90;;;;;;5000278;28;22343;-14
2023/10/16 05:14:28;;;;;;;2.92;1.52;;;4.50;99.90;;;;;;5012001;28;20084;-14
2023/10/16 05:17:19;;;;;;;2.58;1.73;;;6.10;99.90;;;;;;4986940;28;20581;-14
2023/10/16 05:20:51;;;;;;;2.83;1.50;;;6.10;99.90;;;;;;4998778;28;20045;-14
2023/10/16 06:14:35;;;;;;;4.00;1.77;;;5.80;99.90;;;;;;4991787;28;20621;-14
2023/10/16 06:17:13;;;;;;;3.00;1.60;;;5.80;99.90;;;;;;4985646;28;20430;-14
2023/10/16 06:19:42;;;;;;;3.35;1.85;;;5.80;99.90;;;;;;5013587;28;20021;-14
2023/10/16 06:22:09;;;;;;;3.17;1.80;;;5.80;99.90;;;;;;5004375;28;20177;-14
2023/10/16 06:24:50;;;;;;;2.67;1.40;;;5.80;99.90;;;;;;4989931;28;20034;-14
2023/10/16 06:27:19;;;;;;;3.15;1.60;;;5.80;99.90;;;;;;4977191;28;20542;-14
2023/10/16 06:29:51;;;;;;;3.47;2.00;;;5.80;99.90;;;;;;4985666;28;20289;-14
2023/10/16 06:32:22;;;;;;;2.97;1.90;;;5.90;99.90;;;;;;4998743;28;20088;-14
2023/10/16 06:34:49;;;;;;;2.50;1.50;;;5.90;99.90;;;;;;4994828;28;20574;-14
2023/10/16 06:37:18;;;;;;;2.90;1.63;;;5.90;99.90;;;;;;5009117;28;20353;-14
2023/10/16 06:39:49;;;;;;;3.10;1.60;;;5.90;99.90;;;;;;4998902;28;20048;-14
2023/10/16 06:42:18;;;;;;;2.03;1.50;;;5.90;99.90;;;;;;4997938;28;20112;-14
2023/10/16 06:44:50;;;;;;;3.92;2.13;;;5.90;99.90;;;;;;4996214;28;20034;-14
2023/10/16 06:47:23;;;;;;;3.30;1.90;;;6.00;99.90;;;;;;4989351;28;20705;-14
2023/10/16 06:49:52;;;;;;;3.20;1.65;;;6.00;99.90;;;;;;5003500;28;20084;-14
2023/10/16 06:52:17;;;;;;;3.47;1.80;;;6.00;99.90;;;;;;5005315;28;20893;-14
2023/10/16 06:54:44;;;;;;;2.93;1.90;;;6.10;99.90;;;;;;4995931;28;20041;-14
2023/10/16 06:57:11;;;;;;;3.88;1.92;;;6.10;99.90;;;;;;4991458;28;20771;-14
2023/10/16 06:59:41;;;;;;;3.00;1.88;;;6.10;99.90;;;;;;5008288;28;20092;-14
2023/10/16 07:02:29;;;;;;;2.93;1.83;;;6.20;99.90;;;;;;4981056;28;20373;-14
2023/10/16 07:04:55;;;;;;;2.58;1.73;;;6.20;99.90;;;;;;5008730;28;20071;-14
2023/10/16 07:07:22;;;;;;;3.22;1.70;;;6.30;99.90;;;;;;5010448;28;20018;-14
2023/10/16 07:09:48;;;;;;;3.35;1.90;;;6.30;99.90;;;;;;4997155;28;20037;-15
2023/10/16 07:12:18;;;;;;;3.30;1.97;;;6.40;99.90;;;;;;4994994;28;20021;-15
2023/10/16 07:15:01;;;;;;;2.95;1.98;;;6.40;99.90;;;;;;5009062;28;20069;-15
2023/10/16 07:17:30;;;;;;;3.00;1.73;;;6.60;99.90;;;;;;4986257;28;20041;-16
2023/10/16 07:19:59;;;;;;;3.33;1.90;;;6.60;99.90;;;;;;4996540;28;20570;-15
2023/10/16 07:22:32;;;;;;;4.07;2.15;;;6.70;99.90;;;;;;5007828;28;20029;-15
2023/10/16 07:27:46;;;;;;;3.65;1.90;;;7.00;99.90;;;;;;5000836;28;20030;-15
2023/10/16 07:30:22;;;;;;;2.63;1.75;;;7.10;99.90;;;;;;4987916;28;20103;-15
2023/10/16 07:32:51;;;;;;;3.00;1.70;;;7.20;99.90;;;;;;4983545;28;20044;-15
2023/10/16 07:35:18;;;;;;;2.97;1.70;;;7.30;99.90;;;;;;5011133;28;20018;-15
2023/10/16 07:37:54;;;;;;;4.20;2.05;;;7.40;99.90;;;;;;5015509;28;20044;-15
2023/10/16 07:40:20;;;;;;;3.75;2.30;;;7.50;99.90;;;;;;4999623;28;20109;-14
2023/10/16 07:42:52;;;;;;;4.22;2.10;;;6.90;99.90;;;;;;5002662;28;20424;-14
2023/10/16 07:45:19;;;;;;;3.00;2.03;;;7.70;99.90;;;;;;4998695;28;20034;-13
2023/10/16 07:47:48;;;;;;;3.67;2.28;;;7.80;99.90;;;;;;4963689;28;20029;-14
2023/10/16 07:50:15;;;;;;;4.07;2.47;;;8.00;99.90;;;;;;4992031;28;20037;-14
2023/10/16 07:52:42;;;;;;;4.32;2.65;;;8.20;99.90;;;;;;5023807;28;20032;-14
2023/10/16 07:55:18;;;;;;;4.35;3.10;;;8.30;99.90;;;;;;4958286;28;20036;-14
2023/10/16 07:57:48;;;;;;;5.83;3.60;;;8.50;99.90;;;;;;5006897;28;20112;-14
2023/10/16 08:00:14;;;;;;;5.20;3.30;;;8.70;99.90;;;;;;4977672;28;20655;-14
2023/10/16 08:02:45;;;;;;;6.68;3.20;;;8.80;99.90;;;;;;5006682;28;20663;-14
2023/10/16 08:05:16;;;;;;;4.22;2.70;;;8.90;99.90;;;;;;4983762;28;20300;-14
2023/10/16 08:07:49;;;;;;;4.72;2.65;;;9.10;99.90;;;;;;5007498;28;20083;-14
2023/10/16 08:10:40;;;;;;;4.20;2.70;;;9.20;99.90;;;;;;4987254;28;20037;-14
2023/10/16 08:13:11;;;;;;;4.68;2.70;;;9.30;99.90;;;;;;5001413;28;20522;-14
2023/10/16 08:15:51;;;;;;;4.47;2.40;;;9.50;99.90;;;;;;4988026;28;20088;-14
2023/10/16 08:18:25;;;;;;;4.10;2.60;;;9.60;99.90;;;;;;5006785;28;20060;-14
2023/10/16 08:21:06;;;;;;;3.97;2.50;;;9.70;99.90;;;;;;4998354;28;20038;-14
2023/10/16 08:23:34;;;;;;;4.93;3.00;;;9.80;99.90;;;;;;5024918;28;20026;-14
2023/10/16 08:26:14;;;;;;;3.92;2.58;;;10.00;99.90;;;;;;4991891;28;20156;-14
2023/10/16 08:28:45;;;;;;;4.07;2.53;;;10.00;99.90;;;;;;5005230;28;20173;-14
2023/10/16 08:31:22;;;;;;;5.35;2.70;;;10.20;99.90;;;;;;5001894;28;20811;-14
2023/10/16 08:33:54;;;;;;;4.78;2.90;;;10.30;99.90;;;;;;5003053;28;20597;-14
2023/10/16 08:36:21;;;;;;;4.70;2.70;;;10.30;99.90;;;;;;4999925;28;20125;-14
2023/10/16 08:38:54;;;;;;;4.95;2.95;;;10.40;99.90;;;;;;5005841;28;20033;-14
2023/10/16 08:41:42;;;;;;;4.13;2.88;;;10.50;99.90;;;;;;4984699;28;20026;-14
2023/10/16 08:44:15;;;;;;;5.03;3.08;;;10.60;99.90;;;;;;4983961;28;21213;-14
2023/10/16 08:46:44;;;;;;;6.65;3.10;;;10.90;99.90;;;;;;4997480;28;20447;-14
2023/10/16 08:49:11;;;;;;;4.97;2.70;;;11.20;99.90;;;;;;5003532;28;20226;-14
2023/10/16 08:51:39;;;;;;;4.53;2.88;;;12.10;99.90;;;;;;4989581;28;20183;-15
2023/10/16 08:54:26;;;;;;;5.03;2.90;;;11.70;99.90;;;;;;5002069;28;20067;-15
2023/10/16 08:56:53;;;;;;;4.07;2.67;;;12.10;99.90;;;;;;4995073;28;20327;-15
2023/10/16 08:59:24;;;;;;;4.72;2.80;;;12.50;99.90;;;;;;5000571;28;20036;-15
2023/10/16 09:01:52;;;;;;;4.20;2.80;;;12.80;99.90;;;;;;4985184;28;20580;-15
2023/10/16 09:04:20;;;;;;;4.10;2.42;;;13.10;99.90;;;;;;5001853;28;20511;-15
2023/10/16 09:06:46;;;;;;;3.97;2.47;;;13.50;99.90;;;;;;4981862;28;20073;-15
2023/10/16 09:09:16;;;;;;;4.40;2.60;;;13.90;99.90;;;;;;5017054;28;20262;-15
2023/10/16 09:11:49;;;;;;;3.88;2.65;;;14.30;99.90;;;;;;5004799;28;20026;-15
2023/10/16 09:14:20;;;;;;;4.45;2.78;;;14.70;99.90;;;;;;4986938;28;20037;-15
2023/10/16 09:16:55;;;;;;;3.92;3.10;;;15.00;99.90;;;;;;4995481;28;20065;-15
2023/10/16 09:19:32;;;;;;;3.53;2.60;;;15.40;99.90;;;;;;4998684;28;20578;-15
2023/10/16 09:21:58;;;;;;;4.70;2.70;;;15.60;99.90;;;;;;4983610;28;20026;-15
2023/10/16 09:24:24;;;;;;;3.35;2.38;;;15.90;99.90;;;;;;5009780;28;20099;-15
2023/10/16 09:26:54;;;;;;;3.15;2.30;;;16.10;99.90;;;;;;5002142;28;20115;-15
2023/10/16 09:29:27;;;;;;;4.57;2.42;;;16.30;99.90;;;;;;5000382;28;20121;-15
2023/10/16 09:31:54;;;;;;;4.80;2.40;;;16.40;99.90;;;;;;4992079;28;20442;-14
2023/10/16 09:34:22;;;;;;;3.53;2.17;;;16.70;99.90;;;;;;5009997;28;20470;-14
2023/10/16 09:39:49;;;;;;;4.40;2.30;;;17.00;99.90;;;;;;5011167;28;20018;-14
2023/10/16 09:42:15;;;;;;;3.55;2.15;;;17.20;99.90;;;;;;5017884;28;20609;-14
2023/10/16 09:44:44;;;;;;;3.30;2.13;;;17.40;99.90;;;;;;4998371;28;20411;-14
2023/10/16 09:47:25;;;;;;;4.72;2.75;;;17.60;99.90;;;;;;4993400;28;20265;-14
2023/10/16 09:49:54;;;;;;;3.10;2.22;;;17.70;99.90;;;;;;4987974;28;20475;-14
2023/10/16 09:52:21;;;;;;;3.58;2.65;;;17.80;99.90;;;;;;4982069;28;20653;-14
2023/10/16 09:54:48;;;;;;;3.65;2.17;;;17.90;99.90;;;;;;5001761;28;20021;-14
2023/10/16 09:57:19;;;;;;;4.53;2.00;;;18.00;99.90;;;;;;5006738;28;20341;-14
2023/10/16 09:59:45;;;;;;;3.00;2.10;;;18.10;99.90;;;;;;5013405;28;20156;-14
2023/10/16 10:02:25;;;;;;;3.13;1.83;;;18.20;99.90;;;;;;4994937;28;20725;-14
2023/10/16 10:05:08;;;;;;;3.22;1.80;;;18.30;99.90;;;;;;4995409;28;21084;-14
2023/10/16 10:07:38;;;;;;;2.83;1.63;;;18.40;99.90;;;;;;4995655;28;20029;-13
2023/10/16 10:11:05;;;;;;;3.67;1.85;;;18.40;99.90;;;;;;4980852;28;20088;-14
2023/10/16 10:13:02;;;;;;;3.55;2.13;;;18.40;99.90;;;;;;5007520;28;20182;-14
2023/10/16 10:15:34;;;;;;;3.17;2.30;;;18.50;99.90;;;;;;5007164;28;20103;-14
2023/10/16 10:18:31;;;;;;;3.33;2.08;;;18.50;99.90;;;;;;4996499;28;20173;-14
2023/10/16 10:20:48;;;;;;;2.53;2.00;;;18.60;99.90;;;;;;4993893;28;20454;-14
2023/10/16 10:23:15;;;;;;;3.00;2.05;;;18.60;99.90;;;;;;5009422;28;20021;-14
2023/10/16 10:25:42;;;;;;;3.42;2.38;;;18.60;99.90;;;;;;4973048;28;20026;-14
2023/10/16 10:28:23;;;;;;;7.80;2.30;;;18.60;99.90;;;;;;4980430;28;20033;-14
2023/10/16 10:30:50;;;;;;;4.70;2.50;;;18.70;99.90;;;;;;5011370;28;20116;-14
2023/10/16 10:33:37;;;;;;;3.87;2.10;;;18.80;99.90;;;;;;5003863;28;20053;-14
2023/10/16 10:36:27;;;;;;;3.15;2.00;;;18.90;99.90;;;;;;5004497;28;20108;-14
2023/10/16 10:39:22;;;;;;;2.72;1.70;;;19.00;99.90;;;;;;5014742;28;20085;-14
2023/10/16 10:42:03;;;;;;;2.47;1.58;;;19.20;99.90;;;;;;5000724;28;20040;-15
2023/10/16 10:44:29;;;;;;;3.63;1.73;;;19.30;99.90;;;;;;5009105;28;20786;-15
2023/10/16 10:46:56;;;;;;;2.50;1.60;;;19.40;99.90;;;;;;5003149;28;20357;-15
2023/10/16 10:49:35;;;;;;;3.42;1.70;;;19.50;99.90;;;;;;5005873;28;20109;-16
2023/10/16 10:52:02;;;;;;;3.42;1.60;;;19.60;99.90;;;;;;4999452;28;20092;-15
2023/10/16 10:54:28;;;;;;;2.15;1.70;;;19.60;99.90;;;;;;4986083;28;21445;-15
2023/10/16 10:56:59;;;;;;;3.03;1.77;;;19.70;99.90;;;;;;5022990;28;20893;-15
2023/10/16 10:59:41;;;;;;;3.53;1.67;;;19.80;99.90;;;;;;5011371;28;20021;-15
2023/10/16 11:02:20;;;;;;;3.95;1.70;;;19.90;99.90;;;;;;5009624;28;20080;-15
2023/10/16 11:04:48;;;;;;;3.25;1.80;;;19.90;99.90;;;;;;5003678;28;20046;-15
2023/10/16 11:07:26;;;;;;;3.28;2.10;;;19.90;99.90;;;;;;4991431;28;20117;-15
2023/10/16 11:09:57;;;;;;;4.70;1.80;;;19.90;99.90;;;;;;5008383;28;20065;-14
2023/10/16 11:12:26;;;;;;;3.07;1.87;;;19.90;99.90;;;;;;4982330;28;20036;-14
2023/10/16 11:14:53;;;;;;;2.47;1.60;;;19.90;99.90;;;;;;4996846;28;20037;-14
2023/10/16 11:17:33;;;;;;;2.45;1.42;;;19.90;99.90;;;;;;5007684;28;20292;-14
2023/10/16 11:20:15;;;;;;;4.25;1.65;;;19.90;99.90;;;;;;4985256;28;20271;-14
2023/10/16 11:22:45;;;;;;;2.40;1.30;;;20.00;99.90;;;;;;4999887;28;20432;-14
2023/10/16 11:25:14;;;;;;;3.33;1.60;;;20.00;99.90;;;;;;5005687;28;20479;-14
2023/10/16 11:27:42;;;;;;;2.58;1.48;;;20.00;99.90;;;;;;4983282;28;20546;-14
2023/10/16 11:30:14;;;;;;;3.45;1.67;;;20.10;99.90;;;;;;5009815;28;20478;-14
2023/10/16 11:32:48;;;;;;;2.97;1.55;;;20.10;99.90;;;;;;5007780;28;20920;-14
2023/10/16 11:35:18;;;;;;;3.85;1.67;;;20.10;99.90;;;;;;4995369;28;20056;-14
2023/10/16 11:37:59;;;;;;;3.57;1.80;;;20.10;99.90;;;;;;5010919;28;20041;-14
2023/10/16 11:40:39;;;;;;;5.18;1.70;;;20.20;99.90;;;;;;5006030;28;20779;-14
2023/10/16 11:43:13;;;;;;;3.63;1.80;;;20.30;99.90;;;;;;4966921;28;20036;-14
2023/10/16 11:45:39;;;;;;;2.78;1.63;;;20.40;99.90;;;;;;5009202;28;20599;-14
2023/10/16 11:50:51;;;;;;;3.57;1.70;;;20.70;99.90;;;;;;4996950;28;20034;-14
2023/10/16 11:53:23;;;;;;;3.05;1.67;;;20.90;99.90;;;;;;4992549;28;20033;-14
2023/10/16 11:55:52;;;;;;;2.90;1.80;;;21.00;99.90;;;;;;5008958;28;20025;-14
2023/10/16 11:58:18;;;;;;;3.15;1.75;;;21.20;99.90;;;;;;4980075;28;20057;-14
2023/10/16 12:00:56;;;;;;;4.28;1.67;;;21.30;99.90;;;;;;5004476;28;20026;-14
2023/10/16 12:03:26;;;;;;;2.60;1.50;;;21.30;99.90;;;;;;5020081;28;20444;-14
2023/10/16 12:05:57;;;;;;;3.50;1.50;;;21.40;99.90;;;;;;5008474;28;20453;-14
2023/10/16 12:08:24;;;;;;;2.00;1.30;;;21.40;99.90;;;;;;4978947;28;20906;-14
2023/10/16 12:10:50;;;;;;;2.60;1.30;;;21.50;99.90;;;;;;5006035;28;20137;-14
2023/10/16 12:13:16;;;;;;;2.27;1.20;;;21.50;99.90;;;;;;5003406;28;20062;-14
2023/10/16 12:15:43;;;;;;;1.58;0.93;;;21.50;99.90;;;;;;4986933;28;20029;-14
2023/10/16 12:18:12;;;;;;;1.95;1.02;;;21.40;99.90;;;;;;5004634;28;20022;-14
2023/10/16 12:20:38;;;;;;;1.20;0.93;;;21.40;99.90;;;;;;5008135;28;20039;-15
2023/10/16 12:23:05;;;;;;;1.77;1.00;;;21.40;99.90;;;;;;4996571;28;20415;-15
2023/10/16 12:25:32;;;;;;;2.60;1.15;;;21.30;99.90;;;;;;4999531;28;20235;-15
2023/10/16 12:27:58;;;;;;;1.73;0.90;;;21.30;99.90;;;;;;5009142;28;20096;-15
2023/10/16 12:30:27;;;;;;;2.45;0.85;;;21.30;99.90;;;;;;4980626;28;20262;-15
2023/10/16 12:32:55;;;;;;;2.15;0.95;;;21.40;99.90;;;;;;5006844;28;20038;-15
2023/10/16 12:35:22;;;;;;;1.70;0.90;;;21.40;99.90;;;;;;5002660;28;20523;-15
2023/10/16 12:37:55;;;;;;;1.65;0.93;;;21.40;99.90;;;;;;4995023;28;20629;-15
2023/10/16 12:40:24;;;;;;;3.05;1.00;;;21.40;99.90;;;;;;4991774;28;20042;-15
2023/10/16 12:42:55;;;;;;;1.98;1.00;;;21.50;99.90;;;;;;5007799;28;20341;-15
2023/10/16 12:45:25;;;;;;;2.30;1.00;;;21.50;99.90;;;;;;5004643;28;20043;-15
2023/10/16 12:47:52;;;;;;;1.93;0.80;;;21.60;99.90;;;;;;4981294;28;20033;-15
2023/10/16 12:50:29;;;;;;;2.92;0.98;;;21.70;99.90;;;;;;5008219;28;20033;-16
2023/10/16 12:52:56;;;;;;;2.13;0.90;;;21.70;99.90;;;;;;4990278;28;20064;-15
2023/10/16 12:55:23;;;;;;;2.03;0.80;;;21.70;99.90;;;;;;5026012;28;20021;-15
2023/10/16 12:57:53;;;;;;;2.03;0.90;;;21.80;99.90;;;;;;4999712;28;20056;-15
2023/10/16 13:00:21;;;;;;;1.60;0.87;;;21.80;99.90;;;;;;5008640;28;20071;-15
2023/10/16 13:02:51;;;;;;;2.10;0.90;;;21.80;99.90;;;;;;5000089;28;20080;-14
2023/10/16 13:05:24;;;;;;;2.63;1.00;;;21.80;99.90;;;;;;4995442;28;20049;-14
2023/10/16 13:07:50;;;;;;;1.83;1.10;;;21.70;99.90;;;;;;4991665;28;20033;-14
2023/10/16 13:10:20;;;;;;;1.02;0.80;;;21.80;99.90;;;;;;5009679;28;20029;-14
2023/10/16 13:12:47;;;;;;;2.23;1.00;;;21.60;99.90;;;;;;4996767;28;20414;-14
2023/10/16 13:15:24;;;;;;;1.60;0.82;;;21.60;99.90;;;;;;5009457;28;20220;-14
2023/10/16 13:17:53;;;;;;;1.35;0.80;;;21.50;99.90;;;;;;4982823;28;20024;-14
2023/10/16 13:20:19;;;;;;;1.45;0.90;;;21.40;99.90;;;;;;5010725;28;20026;-14
2023/10/16 13:22:49;;;;;;;1.17;0.80;;;21.40;99.90;;;;;;5002646;28;20025;-14
2023/10/16 13:25:37;;;;;;;1.30;0.85;;;21.30;99.90;;;;;;5005920;28;20052;-14
2023/10/16 13:28:03;;;;;;;1.25;0.70;;;21.30;99.90;;;;;;4993809;28;20282;-14
2023/10/16 13:30:31;;;;;;;1.38;0.80;;;21.30;99.90;;;;;;5011063;28;20428;-14
2023/10/16 13:33:06;;;;;;;2.53;0.82;;;21.30;99.90;;;;;;4995628;28;20320;-16
2023/10/16 13:35:32;;;;;;;1.63;0.77;;;21.30;99.90;;;;;;5013877;28;20430;-15
2023/10/16 13:37:59;;;;;;;2.67;0.95;;;21.20;99.90;;;;;;5006113;28;20453;-15
2023/10/16 13:40:28;;;;;;;0.98;0.65;;;21.20;99.90;;;;;;4995176;28;20073;-15
2023/10/16 13:42:55;;;;;;;1.25;0.82;;;21.20;99.90;;;;;;4993471;28;20030;-15
2023/10/16 13:45:22;;;;;;;1.38;0.80;;;21.10;99.90;;;;;;5014075;28;20125;-15
2023/10/16 13:47:49;;;;;;;1.50;0.80;;;21.10;99.90;;;;;;4990827;28;20029;-15
2023/10/16 13:50:24;;;;;;;1.67;0.85;;;21.00;99.90;;;;;;5004925;28;20125;-15
2023/10/16 13:52:51;;;;;;;2.10;1.00;;;20.90;99.40;;;;;;5007575;28;20109;-15
2023/10/16 13:55:20;;;;;;;2.10;0.90;;;20.80;99.90;;;;;;4995445;28;20575;-15
2023/10/16 13:57:48;;;;;;;1.60;0.93;;;20.80;99.90;;;;;;4997240;28;20426;-15
2023/10/16 14:00:30;;;;;;;1.40;1.00;;;20.60;99.90;;;;;;5011187;28;20628;-16
2023/10/16 14:05:47;;;;;;;2.47;1.00;;;20.40;98.50;;;;;;5007515;28;20845;-15
2023/10/16 14:08:15;;;;;;;1.23;0.90;;;20.30;99.40;;;;;;5008689;28;20769;-15
2023/10/16 14:10:57;;;;;;;1.30;1.00;;;20.10;99.90;;;;;;5005230;28;20506;-15
2023/10/16 14:13:27;;;;;;;1.97;1.07;;;20.00;99.90;;;;;;4996864;28;20107;-14
2023/10/16 14:16:07;;;;;;;1.10;0.90;;;19.90;99.90;;;;;;5008385;28;20029;-14
2023/10/16 14:18:33;;;;;;;1.67;0.90;;;19.80;99.90;;;;;;4986941;28;20033;-14
2023/10/16 14:20:59;;;;;;;1.57;0.83;;;19.70;99.90;;;;;;4987720;28;20034;-13
2023/10/16 14:23:30;;;;;;;1.90;1.10;;;19.70;99.90;;;;;;5005392;28;20280;-13
2023/10/16 14:25:59;;;;;;;1.98;1.23;;;19.70;99.90;;;;;;4982603;28;20060;-13
2023/10/16 14:31:08;;;;;;;2.85;1.20;;;19.60;99.90;;;;;;5003436;28;20172;-14
2023/10/16 14:33:35;;;;;;;2.63;1.30;;;19.60;99.20;;;;;;5011196;28;20635;-14
2023/10/16 14:36:04;;;;;;;2.83;1.30;;;19.50;99.90;;;;;;4975709;28;20238;-13
2023/10/16 14:38:30;;;;;;;2.05;1.30;;;19.50;99.90;;;;;;5009932;28;20441;-13
2023/10/16 14:41:04;;;;;;;2.40;1.20;;;19.40;99.90;;;;;;4974107;28;20691;-14
2023/10/16 14:43:30;;;;;;;1.85;1.40;;;19.30;99.90;;;;;;4982631;28;20387;-15
2023/10/16 14:46:00;;;;;;;2.07;1.07;;;19.20;99.70;;;;;;4997451;28;20345;-15
2023/10/16 14:48:26;;;;;;;1.95;1.10;;;19.10;99.80;;;;;;5003263;28;20030;-15
2023/10/16 14:50:52;;;;;;;2.60;0.98;;;18.90;99.90;;;;;;4980963;28;20135;-15
2023/10/16 14:53:20;;;;;;;1.67;1.00;;;18.90;99.90;;;;;;4984350;28;20516;-14
2023/10/16 14:55:49;;;;;;;1.53;1.00;;;18.70;99.80;;;;;;4981544;28;20088;-15
2023/10/16 14:58:16;;;;;;;1.25;0.98;;;18.70;98.90;;;;;;4976466;28;20030;-15
2023/10/16 15:00:44;;;;;;;1.50;1.00;;;18.60;99.50;;;;;;5019751;28;20683;-15
2023/10/16 15:03:11;;;;;;;1.50;0.80;;;18.50;99.60;;;;;;5003250;28;20046;-14